Terminal Aerodrome Forecast
Issued by NWS Duluth, MN

Home | Current Version | Previous Version | Text Only | Print | Product List | Glossary On
Versions: 1 2 3 4 5 6 7 8 9 10 11 12 13 14 15 16 17 18 19 20
000
FTUS43 KDLH 201744
TAFINL
TAF
KINL 201744Z 2018/2118 31009KT P6SM SCT060
     FM210100 VRB03KT P6SM SCT200
     FM210700 VRB03KT P6SM VCSH SCT060 BKN150
     FM211200 14004KT P6SM SCT150=

USA.gov is the U.S. government's official web portal to all federal, state and local government web resources and services.